sensor_id;sensor_type;location;lat;lon;timestamp;temperature;humidity
26041;DHT22;13816;53.628;9.950;2023-02-01T00:04:39;5.40;99.90
26041;DHT22;13816;53.628;9.950;2023-02-01T00:12:35;5.40;99.90
26041;DHT22;13816;53.628;9.950;2023-02-01T00:16:17;4.60;99.90
26041;DHT22;13816;53.628;9.950;2023-02-01T00:19:29;5.00;99.90
26041;DHT22;13816;53.628;9.950;2023-02-01T00:23:01;5.30;99.90
26041;DHT22;13816;53.628;9.950;2023-02-01T00:25:45;5.30;99.90
26041;DHT22;13816;53.628;9.950;2023-02-01T00:28:35;5.30;99.90
26041;DHT22;13816;53.628;9.950;2023-02-01T00:31:52;5.30;99.90
26041;DHT22;13816;53.628;9.950;2023-02-01T00:35:19;5.00;99.90
26041;DHT22;13816;53.628;9.950;2023-02-01T00:38:56;5.00;99.90
26041;DHT22;13816;53.628;9.950;2023-02-01T00:42:19;5.30;99.90
26041;DHT22;13816;53.628;9.950;2023-02-01T00:45:51;5.20;99.90
26041;DHT22;13816;53.628;9.950;2023-02-01T00:49:29;5.40;99.90
26041;DHT22;13816;53.628;9.950;2023-02-01T00:53:17;5.20;99.90
26041;DHT22;13816;53.628;9.950;2023-02-01T00:57:19;5.50;99.90
26041;DHT22;13816;53.628;9.950;2023-02-01T01:05:38;6.20;99.90
26041;DHT22;13816;53.628;9.950;2023-02-01T01:08:34;5.60;99.90
26041;DHT22;13816;53.628;9.950;2023-02-01T01:12:14;5.50;99.90
26041;DHT22;13816;53.628;9.950;2023-02-01T01:19:29;4.60;99.90
26041;DHT22;13816;53.628;9.950;2023-02-01T01:23:06;5.40;99.90
26041;DHT22;13816;53.628;9.950;2023-02-01T01:27:09;5.80;99.90
26041;DHT22;13816;53.628;9.950;2023-02-01T01:30:47;5.70;99.90
26041;DHT22;13816;53.628;9.950;2023-02-01T01:33:43;5.50;99.90
26041;DHT22;13816;53.628;9.950;2023-02-01T01:37:02;5.40;99.90
26041;DHT22;13816;53.628;9.950;2023-02-01T01:40:56;4.80;99.90
26041;DHT22;13816;53.628;9.950;2023-02-01T01:48:59;5.70;99.90
26041;DHT22;13816;53.628;9.950;2023-02-01T01:52:35;5.60;99.90
26041;DHT22;13816;53.628;9.950;2023-02-01T01:56:11;5.50;99.90
26041;DHT22;13816;53.628;9.950;2023-02-01T02:00:01;5.60;99.90
26041;DHT22;13816;53.628;9.950;2023-02-01T02:07:39;5.70;99.90
26041;DHT22;13816;53.628;9.950;2023-02-01T02:11:35;5.70;99.90
26041;DHT22;13816;53.628;9.950;2023-02-01T02:14:55;5.70;99.90
26041;DHT22;13816;53.628;9.950;2023-02-01T02:40:58;5.70;99.90
26041;DHT22;13816;53.628;9.950;2023-02-01T02:52:06;5.70;99.90
26041;DHT22;13816;53.628;9.950;2023-02-01T02:55:59;5.50;99.90
26041;DHT22;13816;53.628;9.950;2023-02-01T02:59:41;5.60;99.90
26041;DHT22;13816;53.628;9.950;2023-02-01T03:02:56;5.60;99.90
26041;DHT22;13816;53.628;9.950;2023-02-01T03:06:32;5.60;99.90
26041;DHT22;13816;53.628;9.950;2023-02-01T03:09:55;5.50;99.90
26041;DHT22;13816;53.628;9.950;2023-02-01T03:12:54;5.50;99.90
26041;DHT22;13816;53.628;9.950;2023-02-01T03:19:29;5.40;99.90
26041;DHT22;13816;53.628;9.950;2023-02-01T03:22:04;5.40;99.90
26041;DHT22;13816;53.628;9.950;2023-02-01T03:27:48;5.50;99.90
26041;DHT22;13816;53.628;9.950;2023-02-01T03:31:11;5.30;99.90
26041;DHT22;13816;53.628;9.950;2023-02-01T03:34:15;5.40;99.90
26041;DHT22;13816;53.628;9.950;2023-02-01T03:40:32;5.30;99.90
26041;DHT22;13816;53.628;9.950;2023-02-01T03:50:55;5.10;99.90
26041;DHT22;13816;53.628;9.950;2023-02-01T03:58:42;5.20;99.90
26041;DHT22;13816;53.628;9.950;2023-02-01T04:02:38;4.60;99.90
26041;DHT22;13816;53.628;9.950;2023-02-01T04:09:21;5.10;99.90
26041;DHT22;13816;53.628;9.950;2023-02-01T04:12:12;5.20;99.90
26041;DHT22;13816;53.628;9.950;2023-02-01T04:15:10;5.10;99.90
26041;DHT22;13816;53.628;9.950;2023-02-01T04:18:27;4.80;99.90
26041;DHT22;13816;53.628;9.950;2023-02-01T04:29:49;4.90;99.90
26041;DHT22;13816;53.628;9.950;2023-02-01T05:00:15;4.70;99.90
26041;DHT22;13816;53.628;9.950;2023-02-01T05:04:12;4.60;99.90
26041;DHT22;13816;53.628;9.950;2023-02-01T05:11:14;4.70;99.90
26041;DHT22;13816;53.628;9.950;2023-02-01T05:14:25;4.00;99.90
26041;DHT22;13816;53.628;9.950;2023-02-01T05:20:51;4.60;99.90
26041;DHT22;13816;53.628;9.950;2023-02-01T05:23:38;4.50;99.90
26041;DHT22;13816;53.628;9.950;2023-02-01T05:31:46;3.80;99.90
26041;DHT22;13816;53.628;9.950;2023-02-01T05:35:27;3.60;99.90
26041;DHT22;13816;53.628;9.950;2023-02-01T05:41:45;4.10;99.90
26041;DHT22;13816;53.628;9.950;2023-02-01T05:44:35;4.10;99.90
26041;DHT22;13816;53.628;9.950;2023-02-01T05:48:03;4.00;99.90
26041;DHT22;13816;53.628;9.950;2023-02-01T05:51:01;4.40;99.90
26041;DHT22;13816;53.628;9.950;2023-02-01T05:53:27;3.90;99.90
26041;DHT22;13816;53.628;9.950;2023-02-01T05:55:53;3.90;99.90
26041;DHT22;13816;53.628;9.950;2023-02-01T05:58:19;4.40;99.90
26041;DHT22;13816;53.628;9.950;2023-02-01T06:00:45;3.90;99.90
26041;DHT22;13816;53.628;9.950;2023-02-01T06:03:11;3.70;99.90
26041;DHT22;13816;53.628;9.950;2023-02-01T06:05:37;3.70;99.90
26041;DHT22;13816;53.628;9.950;2023-02-01T06:08:03;3.80;99.90
26041;DHT22;13816;53.628;9.950;2023-02-01T06:10:29;3.70;99.90
26041;DHT22;13816;53.628;9.950;2023-02-01T06:12:55;3.80;99.90
26041;DHT22;13816;53.628;9.950;2023-02-01T06:15:22;5.00;99.90
26041;DHT22;13816;53.628;9.950;2023-02-01T06:17:48;3.60;99.90
26041;DHT22;13816;53.628;9.950;2023-02-01T06:20:14;3.10;99.90
26041;DHT22;13816;53.628;9.950;2023-02-01T06:22:41;3.80;99.90
26041;DHT22;13816;53.628;9.950;2023-02-01T06:25:10;3.90;99.90
26041;DHT22;13816;53.628;9.950;2023-02-01T06:27:37;3.70;99.90
26041;DHT22;13816;53.628;9.950;2023-02-01T06:30:05;3.10;99.90
26041;DHT22;13816;53.628;9.950;2023-02-01T06:32:32;3.70;99.90
26041;DHT22;13816;53.628;9.950;2023-02-01T06:34:58;3.80;99.90
26041;DHT22;13816;53.628;9.950;2023-02-01T06:37:25;4.30;99.90
